Time;durP1;ratioP1;P1;durP2;ratioP2;P2;SDS_P1;SDS_P2;PMS_P1;PMS_P2;Temp;Humidity;BMP_temperature;BMP_pressure;BME280_temperature;BME280_humidity;BME280_pressure;Samples;Min_cycle;Max_cycle;Signal;HPM_P1;HPM_P2
2022/12/28 00:01:45;;;;;;;6.60;5.93;;;5.40;54.80;;;;;;20873;6727;118875;-77
2022/12/28 00:04:17;;;;;;;7.40;6.70;;;5.30;54.90;;;;;;20705;6727;306012;-77
2022/12/28 00:06:53;;;;;;;6.17;5.77;;;5.30;55.00;;;;;;20869;6727;116743;-80
2022/12/28 00:09:29;;;;;;;7.28;6.57;;;5.30;56.00;;;;;;20678;6727;287141;-77
2022/12/28 00:12:05;;;;;;;7.40;6.70;;;5.20;55.10;;;;;;20715;6727;305701;-77
2022/12/28 00:14:41;;;;;;;7.47;6.60;;;5.70;53.60;;;;;;20725;6727;304596;-77
2022/12/28 00:17:18;;;;;;;5.90;5.40;;;5.70;53.50;;;;;;20861;6727;118143;-77
2022/12/28 00:19:55;;;;;;;6.17;5.37;;;5.50;53.80;;;;;;20954;6721;120612;-80
2022/12/28 00:22:30;;;;;;;7.12;6.53;;;5.10;54.50;;;;;;20678;6733;305400;-80
2022/12/28 00:25:06;;;;;;;7.30;6.70;;;5.10;54.50;;;;;;20753;6708;276902;-77
2022/12/28 00:27:42;;;;;;;7.57;6.93;;;5.40;54.00;;;;;;20655;6708;282169;-81
2022/12/28 00:30:17;;;;;;;7.03;6.47;;;5.60;53.30;;;;;;20758;6708;304091;-81
2022/12/28 00:32:54;;;;;;;6.07;5.67;;;5.80;52.90;;;;;;20965;6708;120498;-76
2022/12/28 00:35:30;;;;;;;6.67;6.10;;;5.50;53.30;;;;;;20740;6708;280710;-77
2022/12/28 00:38:06;;;;;;;6.50;5.90;;;5.50;53.80;;;;;;20637;6708;307343;-79
2022/12/28 00:40:42;;;;;;;6.20;5.70;;;5.70;53.50;;;;;;20973;6708;116925;-79
2022/12/28 00:43:18;;;;;;;6.60;6.10;;;5.50;53.70;;;;;;20732;6708;279407;-79
2022/12/28 00:45:57;;;;;;;6.00;5.40;;;5.50;54.00;;;;;;20974;6708;118488;-79
2022/12/28 00:48:29;;;;;;;6.25;5.75;;;5.30;54.10;;;;;;20611;6708;336810;-76
2022/12/28 00:51:11;;;;;;;5.57;5.03;;;5.40;54.90;;;;;;20912;6727;117209;-76
2022/12/28 00:53:48;;;;;;;6.40;5.80;;;5.40;55.40;;;;;;20683;6727;310572;-80
2022/12/28 00:56:23;;;;;;;5.57;5.07;;;5.40;55.40;;;;;;20905;6727;116833;-76
2022/12/28 00:58:59;;;;;;;5.43;5.03;;;5.40;55.50;;;;;;20724;6727;118223;-77
2022/12/28 01:01:34;;;;;;;5.07;4.70;;;5.20;56.00;;;;;;20865;6733;117222;-76
2022/12/28 01:04:10;;;;;;;6.97;4.70;;;5.00;56.60;;;;;;20972;6708;118662;-78
2022/12/28 01:06:46;;;;;;;4.70;4.40;;;4.80;56.90;;;;;;20958;6708;120318;-76
2022/12/28 01:09:22;;;;;;;5.60;5.10;;;5.00;57.30;;;;;;20736;6708;337859;-76
2022/12/28 01:11:59;;;;;;;5.23;4.73;;;5.00;57.30;;;;;;20959;6708;118830;-76
2022/12/28 01:14:36;;;;;;;5.60;5.13;;;5.10;57.10;;;;;;20763;6708;306257;-76
2022/12/28 01:17:11;;;;;;;5.53;5.13;;;5.30;56.60;;;;;;20722;6708;277167;-76
2022/12/28 01:19:47;;;;;;;4.97;4.57;;;5.70;55.70;;;;;;20882;6733;117778;-77
2022/12/28 01:22:24;;;;;;;5.60;5.20;;;5.70;55.60;;;;;;20751;6708;309064;-76
2022/12/28 01:24:59;;;;;;;4.90;4.50;;;5.80;55.20;;;;;;20970;6708;116714;-77
2022/12/28 01:27:35;;;;;;;5.20;4.20;;;5.70;55.30;;;;;;20872;6708;117350;-77
2022/12/28 01:30:11;;;;;;;4.70;4.30;;;5.50;55.80;;;;;;20980;6708;117115;-76
2022/12/28 01:32:46;;;;;;;5.27;4.77;;;5.30;56.40;;;;;;20964;6708;117094;-77
2022/12/28 01:35:23;;;;;;;5.30;4.20;;;5.10;56.80;;;;;;20935;6708;126423;-76
2022/12/28 01:37:58;;;;;;;5.00;4.70;;;5.00;57.20;;;;;;20656;6708;309324;-77
2022/12/28 01:40:34;;;;;;;4.80;4.40;;;5.30;56.90;;;;;;20985;6708;116694;-77
2022/12/28 01:43:10;;;;;;;5.00;4.00;;;5.30;56.70;;;;;;20965;6708;116651;-77
2022/12/28 01:45:45;;;;;;;5.20;4.80;;;5.20;57.10;;;;;;20732;6708;312671;-77
2022/12/28 01:48:21;;;;;;;5.17;4.77;;;5.40;57.50;;;;;;20618;6708;320062;-76
2022/12/28 01:50:58;;;;;;;5.07;4.67;;;5.80;55.70;;;;;;20971;6708;116623;-76
2022/12/28 01:53:33;;;;;;;5.30;4.90;;;5.80;55.60;;;;;;20720;6708;277273;-76
2022/12/28 01:56:09;;;;;;;5.70;5.20;;;5.90;55.20;;;;;;20754;6708;331981;-75
2022/12/28 01:58:45;;;;;;;5.80;5.30;;;6.20;54.90;;;;;;20592;6708;307486;-76
2022/12/28 02:01:21;;;;;;;5.78;5.28;;;6.40;53.60;;;;;;20733;6708;327777;-76
2022/12/28 02:03:57;;;;;;;5.90;5.50;;;6.80;52.90;;;;;;20756;6708;276981;-75
2022/12/28 02:06:33;;;;;;;5.00;4.60;;;6.70;52.70;;;;;;20756;6708;276652;-76
2022/12/28 02:09:18;;;;;;;4.60;4.30;;;6.90;52.40;;;;;;20745;6780;117287;-75
2022/12/28 02:11:53;;;;;;;4.37;3.80;;;6.70;52.90;;;;;;20956;6708;116688;-76
2022/12/28 02:14:29;;;;;;;3.93;3.63;;;6.30;53.90;;;;;;20966;6708;116687;-76
2022/12/28 02:17:05;;;;;;;4.60;4.20;;;6.00;54.70;;;;;;20926;6708;117899;-76
2022/12/28 02:19:46;;;;;;;3.97;3.73;;;5.80;55.40;;;;;;20953;6708;116666;-76
2022/12/28 02:22:35;;;;;;;4.77;4.37;;;5.70;55.90;;;;;;20737;6708;305188;-76
2022/12/28 02:25:51;;;;;;;4.50;4.10;;;5.90;55.20;;;;;;20756;6708;309707;-75
2022/12/28 02:28:46;;;;;;;4.30;4.00;;;6.40;54.10;;;;;;20618;6708;282985;-76
2022/12/28 02:31:22;;;;;;;4.10;3.80;;;6.80;52.80;;;;;;20748;6708;275911;-76
2022/12/28 02:33:57;;;;;;;4.60;3.57;;;7.00;51.90;;;;;;20969;6708;116808;-76
2022/12/28 02:36:36;;;;;;;3.90;3.60;;;6.90;52.50;;;;;;20749;6708;333899;-76
2022/12/28 02:39:09;;;;;;;3.57;3.37;;;6.90;52.30;;;;;;20744;6779;120873;-75
2022/12/28 02:41:45;;;;;;;3.90;3.60;;;6.80;52.60;;;;;;20728;6708;306397;-75
2022/12/28 02:50:14;;;;;;;4.47;4.17;;;6.40;53.50;;;;;;20899;6733;118310;-76
2022/12/28 02:52:55;;;;;;;4.20;3.90;;;6.10;54.20;;;;;;20747;6708;328583;-78
2022/12/28 02:56:15;;;;;;;3.40;3.20;;;6.30;54.00;;;;;;20964;6708;127954;-77
2022/12/28 02:58:52;;;;;;;3.20;3.00;;;6.30;54.20;;;;;;20812;6708;117406;-76
2022/12/28 03:01:58;;;;;;;3.57;3.20;;;6.10;54.70;;;;;;20733;6708;304848;-78
2022/12/28 03:05:10;;;;;;;2.62;2.40;;;6.30;54.00;;;;;;20759;6708;305081;-79
2022/12/28 03:08:19;;;;;;;2.63;2.43;;;6.70;52.90;;;;;;20677;6708;312076;-76
2022/12/28 03:11:08;;;;;;;2.20;2.00;;;7.40;51.50;;;;;;20763;6708;276933;-75
2022/12/28 03:13:55;;;;;;;2.97;2.30;;;7.30;51.40;;;;;;20733;6708;290110;-77
2022/12/28 03:25:41;;;;;;;2.20;2.10;;;7.50;51.10;;;;;;20762;6708;304541;-76
2022/12/28 03:31:07;;;;;;;3.10;2.90;;;6.90;52.50;;;;;;20704;6727;305780;-76
2022/12/28 03:33:49;;;;;;;2.92;2.83;;;7.10;52.60;;;;;;20672;6727;339506;-76
2022/12/28 03:36:27;;;;;;;3.20;3.00;;;7.40;51.40;;;;;;20696;6727;305615;-76
2022/12/28 03:39:18;;;;;;;2.93;2.73;;;7.40;51.30;;;;;;20689;6798;117281;-76
2022/12/28 03:44:49;;;;;;;3.83;3.50;;;7.50;50.90;;;;;;20699;6727;306347;-77
2022/12/28 03:47:26;;;;;;;3.07;2.87;;;7.50;50.60;;;;;;20834;6727;127383;-76
2022/12/28 03:50:03;;;;;;;3.47;3.22;;;7.50;50.60;;;;;;20679;6733;309213;-76
2022/12/28 03:52:38;;;;;;;3.40;3.20;;;7.50;50.60;;;;;;20751;6708;277437;-76
2022/12/28 03:55:14;;;;;;;3.50;3.30;;;7.70;49.90;;;;;;20754;6708;333956;-77
2022/12/28 03:57:49;;;;;;;3.53;3.22;;;7.90;49.60;;;;;;20647;6708;299278;-76
2022/12/28 04:00:25;;;;;;;4.13;3.10;;;8.00;49.60;;;;;;20893;6733;117978;-76
2022/12/28 04:03:02;;;;;;;3.23;2.93;;;7.70;50.20;;;;;;20965;6708;116650;-76
2022/12/28 04:05:38;;;;;;;3.17;2.97;;;7.30;51.00;;;;;;20741;6708;276320;-77
2022/12/28 04:08:14;;;;;;;3.40;3.20;;;7.30;51.30;;;;;;20641;6708;339798;-77
2022/12/28 04:10:49;;;;;;;3.40;3.10;;;7.50;50.80;;;;;;20922;6727;116740;-76
2022/12/28 04:13:32;;;;;;;2.90;2.80;;;7.40;51.30;;;;;;20886;6727;141052;-76
2022/12/28 04:16:08;;;;;;;3.83;3.53;;;7.10;52.00;;;;;;20705;6727;305696;-76
2022/12/28 04:18:43;;;;;;;3.80;3.50;;;7.10;52.30;;;;;;20536;6727;278652;-77
2022/12/28 04:21:19;;;;;;;3.53;3.17;;;7.40;52.10;;;;;;20881;6733;117660;-76
2022/12/28 04:23:54;;;;;;;3.70;3.50;;;7.30;52.30;;;;;;20963;6708;116979;-77
2022/12/28 04:26:30;;;;;;;4.10;3.80;;;6.90;52.80;;;;;;20968;6708;117113;-76
2022/12/28 04:29:05;;;;;;;3.47;3.27;;;6.70;53.40;;;;;;20781;6765;119891;-76
2022/12/28 04:31:41;;;;;;;3.60;3.40;;;6.50;54.00;;;;;;20946;6708;117489;-77
2022/12/28 04:34:18;;;;;;;3.87;3.67;;;6.30;54.40;;;;;;20760;6708;291416;-77
2022/12/28 04:36:56;;;;;;;3.87;3.50;;;6.80;53.30;;;;;;20739;6708;276409;-77
2022/12/28 04:39:31;;;;;;;3.90;3.70;;;6.80;53.30;;;;;;20685;6727;282902;-76
2022/12/28 04:42:07;;;;;;;4.60;4.10;;;7.10;52.80;;;;;;20913;6727;118178;-76
2022/12/28 04:44:43;;;;;;;4.10;3.80;;;7.00;52.70;;;;;;20708;6727;277621;-76
2022/12/28 04:47:19;;;;;;;3.90;3.70;;;7.00;52.70;;;;;;20637;6727;327524;-77
2022/12/28 04:49:55;;;;;;;3.90;3.70;;;7.50;51.50;;;;;;20705;6727;309053;-76
2022/12/28 04:52:31;;;;;;;3.50;3.30;;;7.40;51.40;;;;;;20905;6727;116735;-76
2022/12/28 04:55:06;;;;;;;3.47;3.27;;;7.20;51.90;;;;;;20911;6727;118041;-75
2022/12/28 04:57:42;;;;;;;3.40;3.20;;;6.90;52.80;;;;;;20599;6727;307374;-75
2022/12/28 05:00:17;;;;;;;3.27;2.83;;;6.90;52.90;;;;;;20896;6733;117590;-75
2022/12/28 05:02:54;;;;;;;3.37;3.07;;;6.80;53.20;;;;;;20745;6708;305011;-76
2022/12/28 05:05:30;;;;;;;3.37;3.07;;;6.90;53.10;;;;;;20734;6708;309184;-75
2022/12/28 05:08:05;;;;;;;2.70;2.50;;;7.20;52.60;;;;;;20639;6708;277772;-76
2022/12/28 05:10:43;;;;;;;2.17;2.07;;;7.30;52.40;;;;;;20972;6708;117203;-75
2022/12/28 05:13:19;;;;;;;2.00;1.90;;;6.90;53.10;;;;;;20942;6708;119336;-75
2022/12/28 05:15:55;;;;;;;2.10;2.00;;;6.90;53.10;;;;;;20759;6708;309570;-75
2022/12/28 05:18:30;;;;;;;1.73;1.63;;;7.00;53.20;;;;;;20822;6708;116935;-76
2022/12/28 05:21:06;;;;;;;1.83;1.73;;;7.00;53.50;;;;;;20972;6708;116640;-76
2022/12/28 05:23:41;;;;;;;2.00;1.90;;;6.80;54.10;;;;;;20733;6708;335159;-76
2022/12/28 05:26:17;;;;;;;2.17;1.97;;;6.90;53.70;;;;;;20967;6708;120954;-75
2022/12/28 05:28:53;;;;;;;1.90;1.80;;;6.90;53.80;;;;;;20799;6708;120819;-76
2022/12/28 05:31:28;;;;;;;1.50;1.40;;;6.80;54.40;;;;;;20943;6708;118833;-75
2022/12/28 05:34:04;;;;;;;1.70;1.60;;;6.60;54.80;;;;;;20976;6708;116719;-75
2022/12/28 05:36:39;;;;;;;2.05;1.95;;;6.50;55.10;;;;;;20748;6708;323702;-75
2022/12/28 05:39:15;;;;;;;2.27;2.00;;;6.70;54.60;;;;;;20972;6708;116633;-75
2022/12/28 05:41:51;;;;;;;2.23;1.90;;;6.70;54.50;;;;;;20969;6708;117151;-75
2022/12/28 05:44:26;;;;;;;2.50;2.30;;;6.60;54.90;;;;;;20985;6708;119638;-75
2022/12/28 05:47:01;;;;;;;2.60;2.40;;;6.50;55.30;;;;;;20935;6708;118735;-75
2022/12/28 05:49:37;;;;;;;2.10;2.00;;;6.30;55.60;;;;;;20847;6733;117344;-76
2022/12/28 05:52:13;;;;;;;2.70;2.50;;;6.50;55.10;;;;;;20729;6708;305035;-76
2022/12/28 05:54:49;;;;;;;3.00;2.70;;;6.50;55.10;;;;;;20764;6708;309855;-76
2022/12/28 05:57:24;;;;;;;2.33;2.23;;;6.90;54.00;;;;;;20885;6708;118035;-75
2022/12/28 06:00:00;;;;;;;2.63;2.43;;;6.90;54.00;;;;;;20758;6708;275216;-76
2022/12/28 06:02:36;;;;;;;2.80;2.60;;;7.00;53.70;;;;;;20746;6708;304961;-75
2022/12/28 06:05:13;;;;;;;2.90;2.70;;;7.30;52.80;;;;;;20971;6708;117871;-75
2022/12/28 06:07:47;;;;;;;3.50;3.20;;;7.20;53.00;;;;;;20863;6708;116902;-75
2022/12/28 06:10:23;;;;;;;3.40;3.20;;;6.90;53.20;;;;;;20763;6708;304585;-75
2022/12/28 06:12:59;;;;;;;2.97;2.80;;;6.90;53.20;;;;;;20969;6708;116556;-76
2022/12/28 06:15:34;;;;;;;3.20;3.00;;;6.80;53.40;;;;;;20948;6708;142560;-77
2022/12/28 06:18:10;;;;;;;3.30;3.00;;;6.60;54.00;;;;;;20858;6708;116985;-76
2022/12/28 06:20:45;;;;;;;3.10;2.90;;;6.30;54.50;;;;;;20974;6708;121726;-78
2022/12/28 06:23:22;;;;;;;4.03;3.67;;;6.20;55.00;;;;;;20738;6708;304401;-77
2022/12/28 06:25:58;;;;;;;4.13;3.83;;;6.30;54.40;;;;;;20983;6708;116815;-76
2022/12/28 06:28:36;;;;;;;3.60;3.30;;;6.30;54.40;;;;;;20831;6708;118425;-77
2022/12/28 06:31:12;;;;;;;4.00;3.70;;;6.20;54.80;;;;;;20758;6708;335803;-76
2022/12/28 06:33:47;;;;;;;3.53;3.30;;;6.30;54.30;;;;;;20976;6708;117243;-77
2022/12/28 06:36:23;;;;;;;4.20;3.80;;;6.30;54.30;;;;;;20976;6708;117156;-76
2022/12/28 06:38:59;;;;;;;3.70;3.50;;;6.10;54.70;;;;;;20774;6708;120666;-76
2022/12/28 06:41:34;;;;;;;3.90;3.60;;;6.00;55.30;;;;;;20944;6708;149931;-75
2022/12/28 06:44:10;;;;;;;4.27;3.60;;;5.80;55.70;;;;;;20974;6708;118086;-76
2022/12/28 06:46:46;;;;;;;4.10;3.80;;;5.70;57.00;;;;;;20965;6708;117074;-76
2022/12/28 06:49:22;;;;;;;4.78;4.30;;;5.70;56.40;;;;;;20738;6708;333587;-75
2022/12/28 06:51:57;;;;;;;3.73;3.30;;;5.90;56.20;;;;;;20763;6708;117014;-76
2022/12/28 06:54:34;;;;;;;3.70;3.40;;;6.00;56.00;;;;;;20960;6708;116745;-76
2022/12/28 06:57:10;;;;;;;3.30;3.00;;;5.80;56.50;;;;;;20910;6708;117675;-75
2022/12/28 06:59:46;;;;;;;3.33;3.10;;;5.80;56.50;;;;;;20946;6708;116684;-75
2022/12/28 07:02:21;;;;;;;3.97;3.67;;;5.80;56.80;;;;;;20735;6708;334029;-75
2022/12/28 07:04:57;;;;;;;3.47;2.90;;;6.00;56.30;;;;;;20977;6708;116878;-77
2022/12/28 07:07:32;;;;;;;2.93;2.80;;;6.10;56.10;;;;;;20889;6708;120596;-75
2022/12/28 07:10:09;;;;;;;3.70;3.40;;;6.20;55.80;;;;;;20683;6727;318981;-75
2022/12/28 07:12:44;;;;;;;3.33;3.03;;;6.20;55.80;;;;;;20895;6727;117056;-76
2022/12/28 07:15:20;;;;;;;3.10;2.90;;;6.30;55.70;;;;;;20886;6727;118410;-81
2022/12/28 07:17:56;;;;;;;3.10;2.90;;;6.20;56.10;;;;;;20808;6727;117461;-76
2022/12/28 07:20:34;;;;;;;3.60;3.37;;;6.00;56.40;;;;;;20672;6727;338674;-77
2022/12/28 07:23:07;;;;;;;3.63;3.43;;;6.20;55.80;;;;;;20887;6727;117632;-76
2022/12/28 07:25:44;;;;;;;3.67;3.37;;;6.30;55.80;;;;;;20896;6727;118434;-76
2022/12/28 07:28:19;;;;;;;4.40;4.10;;;6.20;56.10;;;;;;20781;6727;117588;-76
2022/12/28 07:30:56;;;;;;;3.77;3.30;;;6.00;56.40;;;;;;20885;6733;116716;-76
2022/12/28 07:33:32;;;;;;;2.83;2.63;;;5.90;56.80;;;;;;20938;6708;118149;-76
2022/12/28 07:39:03;;;;;;;3.40;3.20;;;6.10;56.40;;;;;;20528;6779;336680;-74
2022/12/28 07:41:39;;;;;;;3.43;3.20;;;6.60;55.50;;;;;;20948;6708;120565;-76
2022/12/28 07:44:16;;;;;;;3.13;2.80;;;6.60;55.40;;;;;;20971;6708;120707;-75
2022/12/28 07:46:52;;;;;;;3.60;3.30;;;6.70;55.50;;;;;;20736;6708;321140;-75
2022/12/28 07:49:27;;;;;;;3.72;3.50;;;6.60;55.40;;;;;;20699;6718;334363;-76
2022/12/28 07:52:03;;;;;;;4.03;3.65;;;7.00;54.30;;;;;;20721;6708;279492;-75
2022/12/28 07:54:39;;;;;;;3.78;3.47;;;7.30;53.10;;;;;;20748;6708;301307;-75
2022/12/28 07:57:14;;;;;;;3.37;3.13;;;7.60;53.10;;;;;;20909;6708;120218;-76
2022/12/28 07:59:50;;;;;;;3.80;3.50;;;7.50;53.40;;;;;;20945;6708;116693;-76
2022/12/28 08:02:26;;;;;;;4.30;4.00;;;7.30;54.20;;;;;;20729;6708;306260;-76
2022/12/28 08:05:02;;;;;;;4.37;4.10;;;7.30;54.20;;;;;;20949;6708;117032;-76
2022/12/28 08:07:37;;;;;;;3.90;3.70;;;7.30;54.40;;;;;;20644;6708;333788;-75
2022/12/28 08:10:13;;;;;;;3.30;3.00;;;7.50;54.00;;;;;;20957;6708;117674;-76
2022/12/28 08:12:48;;;;;;;3.73;3.53;;;7.40;54.10;;;;;;20745;6708;276711;-76
2022/12/28 08:15:27;;;;;;;3.97;3.67;;;7.60;53.70;;;;;;20724;6708;305774;-75
2022/12/28 08:18:00;;;;;;;4.15;3.72;;;7.90;53.10;;;;;;20532;6738;312922;-75
2022/12/28 08:20:35;;;;;;;3.97;3.20;;;8.20;52.50;;;;;;20879;6731;117059;-73
2022/12/28 08:23:11;;;;;;;3.90;3.60;;;8.10;52.90;;;;;;20634;6742;335002;-73
2022/12/28 08:25:55;;;;;;;4.00;3.70;;;8.10;52.60;;;;;;20548;6769;302965;-74
2022/12/28 08:28:22;;;;;;;3.27;3.07;;;8.30;52.00;;;;;;20656;6767;119963;-73
2022/12/28 08:30:58;;;;;;;3.90;3.60;;;8.20;52.50;;;;;;20525;6778;306657;-73
2022/12/28 08:33:33;;;;;;;4.20;3.90;;;8.20;52.10;;;;;;20532;6765;336647;-73
2022/12/28 08:36:09;;;;;;;3.70;3.50;;;8.50;51.70;;;;;;20792;6765;117332;-73
2022/12/28 08:38:45;;;;;;;3.80;3.60;;;8.10;53.00;;;;;;20558;6782;118420;-73
2022/12/28 08:41:21;;;;;;;4.00;3.70;;;8.10;53.00;;;;;;20579;6754;277824;-74
2022/12/28 08:43:56;;;;;;;4.10;3.80;;;8.10;52.80;;;;;;20606;6756;307098;-72
2022/12/28 08:46:32;;;;;;;4.03;3.77;;;8.40;51.90;;;;;;20621;6731;305844;-74
2022/12/28 08:49:07;;;;;;;4.30;4.00;;;8.70;51.40;;;;;;20422;6811;285160;-73
2022/12/28 08:51:43;;;;;;;3.80;3.50;;;8.90;51.00;;;;;;20489;6785;318297;-74
2022/12/28 08:54:19;;;;;;;3.90;3.60;;;9.10;51.00;;;;;;20527;6779;337209;-73
2022/12/28 08:56:54;;;;;;;3.70;3.50;;;9.20;50.60;;;;;;20570;6767;309297;-73
2022/12/28 08:59:30;;;;;;;4.53;4.12;;;9.30;50.30;;;;;;20635;6753;280324;-72
2022/12/28 09:02:05;;;;;;;3.80;3.50;;;9.40;50.20;;;;;;20928;6735;119210;-72
2022/12/28 09:04:41;;;;;;;3.37;3.17;;;9.20;50.90;;;;;;20920;6735;119540;-72
2022/12/28 09:07:17;;;;;;;3.47;3.27;;;8.90;51.80;;;;;;20740;6735;116747;-72
2022/12/28 09:09:53;;;;;;;4.03;3.83;;;8.70;52.30;;;;;;20706;6723;305279;-72
2022/12/28 09:12:28;;;;;;;3.73;3.53;;;8.70;52.30;;;;;;20848;6738;118316;-72
2022/12/28 09:15:04;;;;;;;3.80;3.50;;;8.70;52.70;;;;;;20823;6757;121337;-72
2022/12/28 09:17:41;;;;;;;3.60;3.30;;;8.50;53.90;;;;;;20787;6723;116998;-73
2022/12/28 09:20:16;;;;;;;2.97;2.87;;;8.50;53.90;;;;;;20878;6720;117685;-75
2022/12/28 09:22:53;;;;;;;3.07;2.87;;;8.40;54.30;;;;;;20856;6738;116800;-75
2022/12/28 09:25:29;;;;;;;3.70;3.40;;;8.30;55.60;;;;;;20798;6750;117792;-75
2022/12/28 09:28:06;;;;;;;4.17;3.80;;;8.30;55.00;;;;;;20658;6750;117640;-74
2022/12/28 09:30:46;;;;;;;3.23;3.03;;;8.30;55.20;;;;;;20870;6735;116817;-73
2022/12/28 09:36:19;;;;;;;3.10;2.90;;;8.30;55.90;;;;;;20863;6738;116680;-73
2022/12/28 09:38:54;;;;;;;3.57;3.37;;;8.30;55.90;;;;;;20671;6746;118060;-74
2022/12/28 09:41:58;;;;;;;3.23;3.03;;;8.40;56.00;;;;;;20893;6726;116728;-73
2022/12/28 09:44:28;;;;;;;3.67;3.40;;;8.40;56.00;;;;;;20859;6755;117848;-73
2022/12/28 09:47:06;;;;;;;3.93;3.63;;;8.40;56.10;;;;;;20578;6755;278598;-73
2022/12/28 09:49:52;;;;;;;3.40;3.17;;;8.70;54.40;;;;;;20792;6755;116693;-73
2022/12/28 09:52:31;;;;;;;3.80;3.37;;;8.90;54.50;;;;;;20818;6751;116724;-74
2022/12/28 09:55:09;;;;;;;3.83;3.53;;;8.90;54.90;;;;;;20701;6723;333465;-73
2022/12/28 09:57:51;;;;;;;3.40;3.07;;;9.20;53.70;;;;;;20801;6722;120856;-73
2022/12/28 10:00:37;;;;;;;3.70;3.40;;;9.50;54.00;;;;;;20695;6722;305647;-75
2022/12/28 10:03:15;;;;;;;3.17;2.87;;;9.70;51.90;;;;;;20868;6738;120042;-74
2022/12/28 10:05:51;;;;;;;3.80;3.60;;;9.80;52.30;;;;;;20614;6750;281424;-73
2022/12/28 10:08:26;;;;;;;3.35;3.05;;;10.00;50.00;;;;;;20472;6750;294193;-74
2022/12/28 10:11:05;;;;;;;2.80;2.70;;;10.40;49.30;;;;;;20842;6747;118298;-74
2022/12/28 10:13:40;;;;;;;3.20;3.00;;;10.40;49.80;;;;;;20579;6753;335131;-72
2022/12/28 10:16:19;;;;;;;3.30;3.00;;;10.60;49.40;;;;;;20824;6750;118633;-72
2022/12/28 10:18:52;;;;;;;2.70;2.60;;;10.60;50.20;;;;;;20738;6720;117160;-72
2022/12/28 10:21:27;;;;;;;2.80;2.70;;;10.60;50.80;;;;;;20895;6720;118295;-73
2022/12/28 10:24:04;;;;;;;3.30;3.10;;;10.50;51.30;;;;;;20707;6720;334381;-73
2022/12/28 10:26:41;;;;;;;3.27;3.07;;;10.80;49.40;;;;;;20701;6720;309873;-73
2022/12/28 10:29:18;;;;;;;2.87;2.67;;;11.40;48.80;;;;;;20918;6723;118518;-74
2022/12/28 10:32:00;;;;;;;3.37;3.17;;;11.40;49.20;;;;;;20709;6723;303275;-72
2022/12/28 10:34:38;;;;;;;3.47;3.28;;;11.90;47.00;;;;;;20711;6723;334493;-74
2022/12/28 10:37:14;;;;;;;3.63;3.33;;;11.80;47.40;;;;;;20848;6779;120424;-73
2022/12/28 10:40:06;;;;;;;3.40;3.10;;;11.80;47.40;;;;;;20900;6722;118323;-74
2022/12/28 10:42:39;;;;;;;3.20;3.00;;;11.60;48.40;;;;;;20902;6723;124910;-74
2022/12/28 10:45:17;;;;;;;3.77;3.50;;;11.30;49.30;;;;;;20921;6723;117132;-74
2022/12/28 10:47:54;;;;;;;3.73;3.50;;;11.20;50.00;;;;;;20557;6738;312165;-74
2022/12/28 10:50:40;;;;;;;3.33;3.13;;;11.50;49.20;;;;;;20906;6723;116832;-74
2022/12/28 10:53:29;;;;;;;3.70;3.50;;;11.40;49.10;;;;;;20817;6752;118518;-74
2022/12/28 10:56:12;;;;;;;3.20;3.00;;;11.60;49.10;;;;;;20601;6755;277650;-74
2022/12/28 10:58:47;;;;;;;3.00;2.80;;;11.60;49.10;;;;;;20700;6738;117694;-74
2022/12/28 11:01:26;;;;;;;3.33;3.10;;;11.70;50.20;;;;;;20883;6723;126559;-75
2022/12/28 11:04:06;;;;;;;2.87;2.67;;;11.60;51.00;;;;;;20820;6753;117543;-74
2022/12/28 11:06:55;;;;;;;3.03;2.83;;;11.60;50.30;;;;;;20868;6738;117037;-74
2022/12/28 11:09:31;;;;;;;3.00;2.40;;;11.60;50.90;;;;;;20900;6726;117714;-74
2022/12/28 11:12:23;;;;;;;2.87;2.63;;;11.60;51.10;;;;;;20917;6726;120021;-74
2022/12/28 11:15:00;;;;;;;2.50;2.40;;;11.50;50.90;;;;;;20907;6783;116690;-73
2022/12/28 11:17:36;;;;;;;2.60;2.40;;;11.40;51.10;;;;;;20586;6726;278040;-72
2022/12/28 11:20:18;;;;;;;2.90;2.70;;;11.60;48.60;;;;;;20726;6722;276990;-73
2022/12/28 11:22:53;;;;;;;2.60;2.50;;;12.00;47.30;;;;;;20666;6737;334990;-76
2022/12/28 11:25:32;;;;;;;3.00;2.80;;;12.30;47.20;;;;;;20627;6731;306198;-73
2022/12/28 11:28:10;;;;;;;3.10;2.80;;;12.60;46.50;;;;;;20482;6761;306879;-73
2022/12/28 11:30:40;;;;;;;2.87;2.67;;;12.80;46.00;;;;;;20660;6739;306186;-73
2022/12/28 11:33:39;;;;;;;2.97;2.67;;;13.00;46.00;;;;;;20646;6739;306768;-73
2022/12/28 11:36:14;;;;;;;2.50;2.40;;;13.20;46.00;;;;;;20619;6753;277625;-73
2022/12/28 11:38:51;;;;;;;2.40;2.30;;;13.30;45.30;;;;;;20516;6742;307650;-73
2022/12/28 11:41:29;;;;;;;2.30;2.17;;;13.40;44.50;;;;;;20553;6762;307276;-71
2022/12/28 11:44:04;;;;;;;2.37;2.28;;;13.50;44.30;;;;;;20602;6757;306046;-73
2022/12/28 11:46:39;;;;;;;2.27;1.97;;;13.50;44.30;;;;;;20826;6753;116960;-74
2022/12/28 11:49:29;;;;;;;5.53;1.90;;;12.90;46.80;;;;;;20856;6743;116991;-73
2022/12/28 11:52:14;;;;;;;2.00;1.90;;;12.90;46.50;;;;;;20639;6743;307711;-72
2022/12/28 11:54:56;;;;;;;2.07;1.97;;;12.80;44.60;;;;;;20602;6758;278062;-74
2022/12/28 11:57:39;;;;;;;1.95;1.85;;;13.20;44.70;;;;;;20518;6761;278744;-72
2022/12/28 12:00:15;;;;;;;2.10;1.90;;;13.20;44.70;;;;;;20664;6728;306120;-71
2022/12/28 12:02:51;;;;;;;2.67;1.80;;;13.30;44.30;;;;;;20785;6753;117201;-73
2022/12/28 12:05:40;;;;;;;2.15;1.98;;;13.10;44.90;;;;;;20641;6738;335049;-72
2022/12/28 12:08:16;;;;;;;2.17;1.80;;;13.00;44.80;;;;;;20533;6738;308073;-73
2022/12/28 12:11:14;;;;;;;2.00;1.80;;;13.20;44.30;;;;;;20618;6748;277676;-73
2022/12/28 12:13:50;;;;;;;1.90;1.80;;;13.30;44.70;;;;;;20532;6788;335501;-72
2022/12/28 12:16:29;;;;;;;3.00;1.83;;;13.40;44.20;;;;;;20778;6770;117196;-73
2022/12/28 12:19:01;;;;;;;1.80;1.60;;;13.20;45.40;;;;;;20672;6751;117276;-72
2022/12/28 12:21:37;;;;;;;1.70;1.63;;;12.80;47.20;;;;;;20844;6740;118418;-73
2022/12/28 12:24:17;;;;;;;2.45;1.90;;;12.50;47.40;;;;;;20577;6761;281942;-73
2022/12/28 12:26:51;;;;;;;2.33;2.10;;;12.60;46.30;;;;;;20866;6736;118107;-73
2022/12/28 12:29:37;;;;;;;1.70;1.60;;;12.60;46.90;;;;;;20838;6744;117552;-73
2022/12/28 12:32:18;;;;;;;1.60;1.50;;;12.30;47.40;;;;;;20738;6780;118880;-75
2022/12/28 12:34:54;;;;;;;2.08;1.62;;;12.10;48.10;;;;;;20573;6759;307153;-74
2022/12/28 12:37:47;;;;;;;2.63;1.60;;;12.20;46.90;;;;;;20674;6775;117907;-75
2022/12/28 12:40:45;;;;;;;2.70;1.20;;;12.10;47.50;;;;;;20778;6766;117234;-74
2022/12/28 12:43:47;;;;;;;1.60;1.50;;;11.90;48.30;;;;;;20548;6766;310929;-74
2022/12/28 12:46:39;;;;;;;0.87;0.87;;;12.10;46.70;;;;;;20555;6813;117221;-73
2022/12/28 12:49:28;;;;;;;1.47;1.37;;;12.00;47.50;;;;;;20583;6754;308122;-73
2022/12/28 12:52:14;;;;;;;2.30;1.40;;;12.10;46.60;;;;;;20524;6780;307537;-74
2022/12/28 12:55:16;;;;;;;1.30;1.17;;;12.50;46.40;;;;;;20798;6760;122929;-74
2022/12/28 12:57:57;;;;;;;1.10;1.10;;;12.50;47.20;;;;;;20762;6745;117811;-75
2022/12/28 13:00:57;;;;;;;1.30;1.20;;;12.20;48.40;;;;;;20901;6733;116891;-72
2022/12/28 13:03:47;;;;;;;0.90;0.90;;;12.10;48.60;;;;;;20754;6760;120680;-70
2022/12/28 13:06:23;;;;;;;2.17;1.30;;;12.00;49.20;;;;;;20595;6760;277301;-72
2022/12/28 13:08:59;;;;;;;0.93;0.93;;;12.20;47.00;;;;;;20662;6750;120748;-75
2022/12/28 13:11:34;;;;;;;1.17;0.90;;;12.30;47.60;;;;;;20871;6732;117218;-79
2022/12/28 13:14:20;;;;;;;1.37;1.10;;;12.10;48.10;;;;;;20880;6732;116932;-75
2022/12/28 13:16:56;;;;;;;1.20;0.80;;;12.00;48.70;;;;;;20865;6732;116911;-75
2022/12/28 13:19:31;;;;;;;1.07;1.00;;;11.90;49.10;;;;;;20758;6752;117526;-75
2022/12/28 13:22:07;;;;;;;2.33;1.02;;;11.70;49.20;;;;;;20558;6767;317972;-75
2022/12/28 13:24:44;;;;;;;1.40;1.07;;;12.00;47.60;;;;;;20495;6830;307733;-75
2022/12/28 13:27:18;;;;;;;0.80;0.80;;;12.30;46.00;;;;;;20749;6757;117645;-76
2022/12/28 13:29:53;;;;;;;1.60;0.90;;;12.30;46.70;;;;;;20625;6746;314899;-75
2022/12/28 13:32:36;;;;;;;0.93;0.90;;;12.60;44.50;;;;;;20599;6753;307856;-75
2022/12/28 13:35:19;;;;;;;1.73;1.00;;;12.60;44.50;;;;;;20592;6753;306562;-76
2022/12/28 13:38:11;;;;;;;0.87;0.67;;;12.80;44.10;;;;;;20705;6770;118436;-79
2022/12/28 13:40:50;;;;;;;1.23;0.80;;;12.60;45.30;;;;;;20776;6755;117594;-76
2022/12/28 13:44:07;;;;;;;0.80;0.80;;;12.20;46.30;;;;;;20516;6773;307456;-76
2022/12/28 13:46:41;;;;;;;1.57;0.90;;;12.30;45.90;;;;;;20806;6755;117517;-76
2022/12/28 13:49:16;;;;;;;0.80;0.80;;;12.10;46.80;;;;;;20790;6765;117979;-76
2022/12/28 13:51:55;;;;;;;1.53;1.40;;;11.90;47.60;;;;;;20761;6773;117163;-75
2022/12/28 13:54:30;;;;;;;1.07;1.07;;;11.70;48.20;;;;;;20831;6757;116776;-76
2022/12/28 13:57:06;;;;;;;1.13;1.03;;;11.50;48.70;;;;;;20739;6772;117656;-77
2022/12/28 13:59:41;;;;;;;1.13;0.80;;;11.30;49.00;;;;;;20753;6772;116964;-75
2022/12/28 14:02:17;;;;;;;1.70;1.60;;;11.20;49.30;;;;;;20814;6757;118693;-76
2022/12/28 14:04:52;;;;;;;1.87;1.40;;;11.10;49.60;;;;;;20817;6757;117026;-76
2022/12/28 14:07:29;;;;;;;1.70;1.40;;;11.20;48.90;;;;;;20486;6777;336908;-76